createdAt,value
2023-02-14T00:00:41.600Z,25.40
2023-02-14T00:03:10.280Z,25.37
2023-02-14T00:05:50.756Z,24.40
2023-02-14T00:08:27.062Z,24.57
2023-02-14T00:10:57.590Z,25.33
2023-02-14T00:13:26.467Z,25.97
2023-02-14T00:15:54.629Z,23.53
2023-02-14T00:18:47.543Z,24.33
2023-02-14T00:21:16.230Z,24.50
2023-02-14T00:23:44.965Z,24.90
2023-02-14T00:26:17.701Z,24.60
2023-02-14T00:28:49.001Z,24.60
2023-02-14T00:31:18.147Z,25.33
2023-02-14T00:33:47.110Z,25.23
2023-02-14T00:36:15.658Z,24.13
2023-02-14T00:38:44.528Z,25.77
2023-02-14T00:41:19.270Z,25.10
2023-02-14T00:43:50.815Z,23.83
2023-02-14T00:46:19.697Z,25.17
2023-02-14T00:48:48.892Z,24.07
2023-02-14T00:51:18.449Z,24.03
2023-02-14T00:53:49.084Z,23.07
2023-02-14T00:56:18.216Z,23.40
2023-02-14T00:58:49.115Z,24.03
2023-02-14T01:01:26.612Z,24.37
2023-02-14T01:03:57.238Z,22.40
2023-02-14T01:06:25.974Z,24.40
2023-02-14T01:08:54.578Z,23.00
2023-02-14T01:11:25.704Z,23.23
2023-02-14T01:13:54.457Z,23.80
2023-02-14T01:16:24.749Z,22.90
2023-02-14T01:18:53.811Z,22.93
2023-02-14T01:21:26.066Z,22.97
2023-02-14T01:24:01.086Z,22.27
2023-02-14T01:26:32.981Z,23.03
2023-02-14T01:29:01.481Z,24.07
2023-02-14T01:31:32.367Z,22.53
2023-02-14T01:34:01.184Z,23.33
2023-02-14T01:36:30.281Z,22.80
2023-02-14T01:39:03.620Z,22.97
2023-02-14T01:41:36.126Z,23.10
2023-02-14T01:44:07.804Z,22.37
2023-02-14T01:46:38.167Z,24.40
2023-02-14T01:49:15.832Z,21.67
2023-02-14T01:51:45.439Z,23.10
2023-02-14T01:54:14.256Z,23.40
2023-02-14T01:56:43.091Z,23.73
2023-02-14T01:59:12.631Z,23.93
2023-02-14T02:01:42.887Z,23.53
2023-02-14T02:04:12.213Z,23.63
2023-02-14T02:06:44.028Z,24.03
2023-02-14T02:09:14.170Z,23.07
2023-02-14T02:11:43.063Z,23.93
2023-02-14T02:14:12.465Z,22.97
2023-02-14T02:16:56.988Z,24.03
2023-02-14T02:19:33.705Z,22.43
2023-02-14T02:22:27.673Z,23.43
2023-02-14T02:24:56.702Z,22.83
2023-02-14T02:27:33.637Z,22.40
2023-02-14T02:30:32.294Z,21.90
2023-02-14T02:33:08.672Z,23.57
2023-02-14T02:35:47.196Z,23.33
2023-02-14T02:38:20.072Z,23.47
2023-02-14T02:40:51.256Z,24.13
2023-02-14T02:43:24.078Z,23.47
2023-02-14T02:46:13.774Z,23.70
2023-02-14T02:48:44.382Z,22.67
2023-02-14T02:51:32.888Z,22.43
2023-02-14T02:54:02.353Z,23.53
2023-02-14T02:56:50.109Z,24.00
2023-02-14T02:59:20.905Z,24.43
2023-02-14T03:01:51.336Z,23.53
2023-02-14T03:04:39.927Z,23.47
2023-02-14T03:07:23.847Z,23.73
2023-02-14T03:09:53.518Z,22.60
2023-02-14T03:12:24.634Z,22.60
2023-02-14T03:14:53.749Z,23.90
2023-02-14T03:17:26.641Z,24.67
2023-02-14T03:20:13.780Z,22.90
2023-02-14T03:22:45.830Z,23.23
2023-02-14T03:25:19.453Z,23.07
2023-02-14T03:27:49.970Z,22.43
2023-02-14T03:30:20.254Z,24.37
2023-02-14T03:32:49.778Z,23.23
2023-02-14T03:35:19.933Z,23.97
2023-02-14T03:37:52.176Z,23.40
2023-02-14T03:40:22.491Z,24.03
2023-02-14T03:42:53.599Z,24.47
2023-02-14T03:45:28.630Z,24.50
2023-02-14T03:47:58.183Z,25.03
2023-02-14T03:50:26.767Z,24.53
2023-02-14T03:52:56.811Z,26.27
2023-02-14T03:55:28.654Z,26.10
2023-02-14T03:57:58.389Z,27.70
2023-02-14T04:00:28.196Z,26.97
2023-02-14T04:03:00.180Z,25.53
2023-02-14T04:05:31.581Z,28.20
2023-02-14T04:08:04.219Z,26.17
2023-02-14T04:10:34.708Z,26.70
2023-02-14T04:13:03.478Z,25.73
2023-02-14T04:15:31.956Z,26.80
2023-02-14T04:18:17.973Z,26.47
2023-02-14T04:20:46.666Z,26.70
2023-02-14T04:23:18.546Z,27.27
2023-02-14T04:25:47.299Z,24.97
2023-02-14T04:28:15.998Z,27.00
2023-02-14T04:30:48.000Z,26.70
2023-02-14T04:33:16.936Z,27.53
2023-02-14T04:35:45.449Z,27.83
2023-02-14T04:38:14.299Z,26.13
2023-02-14T04:40:44.514Z,26.50
2023-02-14T04:43:14.756Z,26.03
2023-02-14T04:45:44.670Z,26.43
2023-02-14T04:48:13.359Z,27.03
2023-02-14T04:50:42.643Z,26.47
2023-02-14T04:53:11.307Z,26.37
2023-02-14T04:55:41.923Z,26.93
2023-02-14T04:58:11.871Z,26.13
2023-02-14T05:00:43.612Z,25.77
2023-02-14T05:03:12.246Z,25.93
2023-02-14T05:05:44.196Z,26.30
2023-02-14T05:08:12.874Z,25.03
2023-02-14T05:10:41.862Z,25.90
2023-02-14T05:13:13.839Z,25.93
2023-02-14T05:15:45.792Z,25.23
2023-02-14T05:18:14.439Z,26.60
2023-02-14T05:20:45.730Z,26.07
2023-02-14T05:23:14.820Z,25.37
2023-02-14T05:25:43.627Z,25.77
2023-02-14T05:28:12.450Z,27.27
2023-02-14T05:30:41.234Z,26.43
2023-02-14T05:33:13.669Z,26.27
2023-02-14T05:35:42.412Z,27.13
2023-02-14T05:38:10.996Z,26.73
2023-02-14T05:40:39.564Z,26.03
2023-02-14T05:43:08.306Z,27.47
2023-02-14T05:45:37.343Z,28.17
2023-02-14T05:48:06.309Z,26.90
2023-02-14T05:50:38.580Z,27.93
2023-02-14T05:53:10.176Z,27.53
2023-02-14T05:55:39.157Z,27.57
2023-02-14T05:58:07.869Z,25.70
2023-02-14T06:00:39.306Z,27.63
2023-02-14T06:03:10.772Z,27.73
2023-02-14T06:05:41.036Z,28.13
2023-02-14T06:08:09.689Z,26.83
2023-02-14T06:10:41.097Z,27.70
2023-02-14T06:13:10.745Z,26.47
2023-02-14T06:15:39.867Z,27.53
2023-02-14T06:18:11.444Z,28.27
2023-02-14T06:20:41.595Z,27.70
2023-02-14T06:23:13.353Z,27.80
2023-02-14T06:25:41.970Z,28.60
2023-02-14T06:28:13.642Z,28.10
2023-02-14T06:30:43.607Z,28.00
2023-02-14T06:33:12.496Z,28.47
2023-02-14T06:35:46.564Z,29.10
2023-02-14T06:38:15.249Z,29.23
2023-02-14T06:40:47.615Z,28.40
2023-02-14T06:43:19.790Z,28.40
2023-02-14T06:46:06.732Z,28.60
2023-02-14T06:48:43.499Z,28.30
2023-02-14T06:51:45.040Z,28.50
2023-02-14T06:54:18.063Z,28.63
2023-02-14T06:56:53.186Z,28.03
2023-02-14T06:59:34.842Z,28.47
2023-02-14T07:02:04.058Z,29.87
2023-02-14T07:04:32.643Z,29.00
2023-02-14T07:07:06.454Z,30.57
2023-02-14T07:09:34.956Z,28.90
2023-02-14T07:12:03.541Z,28.93
2023-02-14T07:14:42.934Z,30.67
2023-02-14T07:17:13.224Z,30.03
2023-02-14T07:20:21.692Z,30.07
2023-02-14T07:23:21.906Z,29.13
2023-02-14T07:25:50.862Z,32.10
2023-02-14T07:28:20.000Z,31.80
2023-02-14T07:30:48.918Z,31.07
2023-02-14T07:33:20.145Z,32.13
2023-02-14T07:35:48.926Z,31.17
2023-02-14T07:38:21.991Z,30.27
2023-02-14T07:40:53.577Z,30.83
2023-02-14T07:43:22.356Z,32.67
2023-02-14T07:45:51.495Z,32.27
2023-02-14T07:48:20.502Z,33.73
2023-02-14T07:50:51.553Z,32.77
2023-02-14T07:53:25.161Z,33.90
2023-02-14T07:55:56.695Z,34.47
2023-02-14T07:58:27.330Z,35.67
2023-02-14T08:00:59.891Z,36.63
2023-02-14T08:03:29.046Z,35.53
2023-02-14T08:06:03.463Z,37.53
2023-02-14T08:08:33.333Z,37.97
2023-02-14T08:11:02.441Z,38.00
2023-02-14T08:13:31.157Z,39.23
2023-02-14T08:16:06.025Z,37.77
2023-02-14T08:18:35.345Z,37.23
2023-02-14T08:21:04.283Z,36.23
2023-02-14T08:23:34.734Z,38.23
2023-02-14T08:26:03.490Z,36.50
2023-02-14T08:28:35.901Z,37.20
2023-02-14T08:31:04.696Z,36.93
2023-02-14T08:33:33.441Z,36.83
2023-02-14T08:36:02.634Z,37.47
2023-02-14T08:38:31.561Z,36.80
2023-02-14T08:41:05.798Z,36.30
2023-02-14T08:43:36.233Z,36.00
2023-02-14T08:46:04.820Z,36.73
2023-02-14T08:48:33.443Z,39.00
2023-02-14T08:51:02.170Z,37.93
2023-02-14T08:53:30.790Z,37.83
2023-02-14T08:55:59.432Z,38.77
2023-02-14T08:58:30.474Z,39.47
2023-02-14T09:00:59.934Z,38.07
2023-02-14T09:03:28.491Z,37.83
2023-02-14T09:05:56.869Z,38.47
2023-02-14T09:08:25.325Z,40.53
2023-02-14T09:10:53.786Z,40.37
2023-02-14T09:13:22.245Z,39.40
2023-02-14T09:15:52.045Z,41.33
2023-02-14T09:18:20.491Z,39.77
2023-02-14T09:20:48.887Z,40.00
2023-02-14T09:23:17.426Z,38.27
2023-02-14T09:25:45.907Z,40.13
2023-02-14T09:28:14.578Z,38.00
2023-02-14T09:30:43.060Z,38.83
2023-02-14T09:33:12.893Z,38.57
2023-02-14T09:35:41.261Z,38.57
2023-02-14T09:38:20.234Z,37.37
2023-02-14T09:40:50.561Z,36.87
2023-02-14T09:43:20.328Z,38.20
2023-02-14T09:45:49.577Z,36.40
2023-02-14T09:48:21.684Z,37.30
2023-02-14T09:50:50.829Z,35.57
2023-02-14T09:53:21.057Z,36.57
2023-02-14T09:55:50.870Z,37.00
2023-02-14T09:58:21.108Z,36.87
2023-02-14T10:00:50.991Z,38.70
2023-02-14T10:03:52.620Z,38.37
2023-02-14T10:06:29.030Z,37.27
2023-02-14T10:09:00.025Z,38.10
2023-02-14T10:11:28.644Z,37.73
2023-02-14T10:13:57.908Z,38.60
2023-02-14T10:16:27.398Z,37.27
2023-02-14T10:18:56.645Z,38.13
2023-02-14T10:21:25.806Z,38.57
2023-02-14T10:23:57.974Z,36.90
2023-02-14T10:26:27.326Z,36.57
2023-02-14T10:28:56.209Z,38.20
2023-02-14T10:31:25.650Z,35.77
2023-02-14T10:33:57.516Z,37.70
2023-02-14T10:36:44.038Z,37.80
2023-02-14T10:39:18.928Z,37.30
2023-02-14T10:41:49.297Z,38.37
2023-02-14T10:44:24.053Z,37.07
2023-02-14T10:46:54.763Z,37.73
2023-02-14T10:49:28.164Z,36.57
2023-02-14T10:51:57.494Z,36.73
2023-02-14T10:54:29.133Z,37.70
2023-02-14T10:56:58.660Z,37.67
2023-02-14T10:59:27.826Z,36.70
2023-02-14T11:01:56.387Z,36.77
2023-02-14T11:04:25.603Z,36.77
2023-02-14T11:06:54.418Z,35.93
2023-02-14T11:09:22.903Z,37.40
2023-02-14T11:11:53.424Z,35.07
2023-02-14T11:14:22.955Z,33.73
2023-02-14T11:16:52.657Z,34.13
2023-02-14T11:19:22.115Z,34.17
2023-02-14T11:21:50.945Z,33.10
2023-02-14T11:24:20.096Z,32.27
2023-02-14T11:26:48.897Z,32.87
2023-02-14T11:29:19.528Z,33.17
2023-02-14T11:31:48.028Z,33.20
2023-02-14T11:34:23.168Z,33.33
2023-02-14T11:36:51.656Z,32.87
2023-02-14T11:39:22.632Z,33.63
2023-02-14T11:41:51.798Z,32.97
2023-02-14T11:44:23.572Z,34.10
2023-02-14T11:46:53.683Z,33.90
2023-02-14T11:49:28.338Z,32.33
2023-02-14T11:51:57.148Z,33.13
2023-02-14T11:54:29.018Z,33.23
2023-02-14T11:56:57.914Z,33.53
2023-02-14T11:59:29.494Z,33.53
2023-02-14T12:01:58.976Z,35.20
2023-02-14T12:04:30.847Z,32.67
2023-02-14T12:07:00.390Z,34.07
2023-02-14T12:09:30.357Z,33.47
2023-02-14T12:11:58.935Z,32.77
2023-02-14T12:14:29.804Z,32.63
2023-02-14T12:16:59.052Z,32.57
2023-02-14T12:19:31.244Z,34.37
2023-02-14T12:22:00.227Z,33.43
2023-02-14T12:24:30.192Z,33.60
2023-02-14T12:27:00.678Z,33.33
2023-02-14T12:29:31.315Z,32.03
2023-02-14T12:32:01.642Z,32.80
2023-02-14T12:34:30.480Z,32.87
2023-02-14T12:37:10.481Z,32.23
2023-02-14T12:39:39.917Z,33.87
2023-02-14T12:42:12.166Z,31.90
2023-02-14T12:44:43.349Z,31.33
2023-02-14T12:47:15.602Z,32.53
2023-02-14T12:49:52.547Z,31.87
2023-02-14T12:52:29.719Z,33.07
2023-02-14T12:55:02.393Z,32.23
2023-02-14T12:57:34.216Z,31.57
2023-02-14T13:00:08.346Z,32.47
2023-02-14T13:02:53.833Z,30.77
2023-02-14T13:05:23.179Z,30.37
2023-02-14T13:07:58.267Z,30.43
2023-02-14T13:10:30.144Z,32.03
2023-02-14T13:13:00.906Z,31.73
2023-02-14T13:15:32.350Z,30.77
2023-02-14T13:18:01.939Z,30.60
2023-02-14T13:20:41.017Z,30.53
2023-02-14T13:23:12.752Z,30.80
2023-02-14T13:25:42.963Z,31.47
2023-02-14T13:28:13.238Z,30.77
2023-02-14T13:30:43.217Z,31.97
2023-02-14T13:33:25.076Z,33.07
2023-02-14T13:35:53.762Z,30.83
2023-02-14T13:38:22.234Z,32.57
2023-02-14T13:40:53.557Z,29.87
2023-02-14T13:43:36.825Z,31.93
2023-02-14T13:46:07.121Z,29.87
2023-02-14T13:48:38.005Z,30.23
2023-02-14T13:51:08.319Z,31.67
2023-02-14T13:53:41.387Z,31.53
2023-02-14T13:56:28.477Z,31.40
2023-02-14T13:58:59.828Z,30.77
2023-02-14T14:01:34.165Z,29.63
2023-02-14T14:04:02.993Z,30.53
2023-02-14T14:06:31.544Z,29.53
2023-02-14T14:08:59.988Z,29.93
2023-02-14T14:12:01.830Z,31.57
2023-02-14T14:14:36.303Z,32.30
2023-02-14T14:17:19.210Z,32.47
2023-02-14T14:19:48.177Z,32.33
2023-02-14T14:22:19.922Z,32.50
2023-02-14T14:25:09.512Z,34.13
2023-02-14T14:27:38.435Z,33.77
2023-02-14T14:30:07.537Z,34.50
2023-02-14T14:32:37.939Z,35.00
2023-02-14T14:35:07.242Z,35.03
2023-02-14T14:37:35.988Z,35.40
2023-02-14T14:40:05.100Z,34.23
2023-02-14T14:42:34.954Z,33.77
2023-02-14T14:45:20.828Z,35.80
2023-02-14T14:47:52.869Z,34.90
2023-02-14T14:50:24.245Z,35.00
2023-02-14T14:52:53.528Z,34.40
2023-02-14T14:55:22.503Z,34.20
2023-02-14T14:57:51.545Z,36.07
2023-02-14T15:00:24.310Z,34.37
2023-02-14T15:03:01.314Z,34.47
2023-02-14T15:05:30.391Z,35.33
2023-02-14T15:07:58.931Z,33.20
2023-02-14T15:10:28.343Z,34.77
2023-02-14T15:13:15.612Z,34.47
2023-02-14T15:15:44.387Z,34.87
2023-02-14T15:18:15.391Z,34.57
2023-02-14T15:20:44.404Z,34.07
2023-02-14T15:23:17.735Z,33.67
2023-02-14T15:25:46.113Z,34.60
2023-02-14T15:28:17.445Z,34.70
2023-02-14T15:30:46.690Z,35.27
2023-02-14T15:33:16.463Z,35.20
2023-02-14T15:35:44.969Z,34.83
2023-02-14T15:38:13.512Z,35.63
2023-02-14T15:40:42.033Z,35.87
2023-02-14T15:43:16.125Z,35.97
2023-02-14T15:45:45.190Z,35.67
2023-02-14T15:48:16.603Z,36.47
2023-02-14T15:50:46.778Z,35.67
2023-02-14T15:53:25.963Z,37.30
2023-02-14T15:55:54.732Z,36.23
2023-02-14T15:58:23.640Z,36.70
2023-02-14T16:00:52.279Z,36.53
2023-02-14T16:03:22.878Z,38.40
2023-02-14T16:05:51.710Z,36.97
2023-02-14T16:08:27.562Z,36.00
2023-02-14T16:11:03.128Z,36.07
2023-02-14T16:13:32.281Z,36.20
2023-02-14T16:16:18.625Z,36.13
2023-02-14T16:18:48.940Z,36.63
2023-02-14T16:21:18.805Z,36.83
2023-02-14T16:23:47.428Z,36.67
2023-02-14T16:26:16.101Z,36.40
2023-02-14T16:28:44.786Z,37.17
2023-02-14T16:31:14.637Z,54.27
2023-02-14T16:33:43.350Z,40.70
2023-02-14T16:36:16.373Z,37.60
2023-02-14T16:38:45.518Z,38.43
2023-02-14T16:41:20.938Z,36.43
2023-02-14T16:43:49.550Z,37.53
2023-02-14T16:46:18.448Z,38.37
2023-02-14T16:48:46.973Z,37.87
2023-02-14T16:51:17.056Z,37.83
2023-02-14T16:53:45.441Z,35.87
2023-02-14T16:56:14.963Z,37.30
2023-02-14T16:58:43.500Z,36.63
2023-02-14T17:01:12.033Z,38.03
2023-02-14T17:03:42.523Z,36.77
2023-02-14T17:06:11.500Z,36.13
2023-02-14T17:08:41.455Z,36.77
2023-02-14T17:11:09.945Z,37.70
2023-02-14T17:13:40.838Z,37.87
2023-02-14T17:16:11.098Z,37.43
2023-02-14T17:18:39.664Z,37.83
2023-02-14T17:21:08.061Z,39.33
2023-02-14T17:23:36.494Z,37.80
2023-02-14T17:26:07.157Z,36.23
2023-02-14T17:28:35.792Z,38.33
2023-02-14T17:31:06.437Z,37.23
2023-02-14T17:33:35.481Z,38.20
2023-02-14T17:36:07.258Z,39.20
2023-02-14T17:38:35.981Z,37.60
2023-02-14T17:41:13.382Z,38.03
2023-02-14T17:43:41.840Z,38.57
2023-02-14T17:46:10.293Z,37.43
2023-02-14T17:48:38.662Z,37.10
2023-02-14T17:51:07.324Z,38.17
2023-02-14T17:53:35.734Z,38.80
2023-02-14T17:56:07.439Z,39.07
2023-02-14T17:58:37.374Z,37.47
2023-02-14T18:01:06.086Z,37.87
2023-02-14T18:03:34.710Z,38.83
2023-02-14T18:06:03.417Z,39.37
2023-02-14T18:08:32.436Z,39.07
2023-02-14T18:11:01.368Z,38.70
2023-02-14T18:13:29.944Z,39.33
2023-02-14T18:16:00.494Z,38.33
2023-02-14T18:18:28.979Z,42.23
2023-02-14T18:20:57.874Z,40.33
2023-02-14T18:23:26.542Z,41.43
2023-02-14T18:25:56.096Z,41.07
2023-02-14T18:28:24.623Z,45.38
2023-02-14T18:30:58.023Z,42.20
2023-02-14T18:33:28.472Z,41.97
2023-02-14T18:35:57.148Z,49.08
2023-02-14T18:38:25.572Z,43.27
2023-02-14T18:40:54.277Z,42.93
2023-02-14T18:43:25.641Z,43.20
2023-02-14T18:45:54.185Z,41.73
2023-02-14T18:48:22.806Z,43.37
2023-02-14T18:50:52.958Z,41.57
2023-02-14T18:53:21.434Z,41.53
2023-02-14T18:55:49.945Z,42.93
2023-02-14T18:58:19.510Z,40.87
2023-02-14T19:00:48.306Z,39.53
2023-02-14T19:03:16.932Z,41.57
2023-02-14T19:05:45.383Z,41.40
2023-02-14T19:08:15.591Z,41.97
2023-02-14T19:11:04.084Z,42.90
2023-02-14T19:13:34.319Z,40.97
2023-02-14T19:16:03.542Z,43.07
2023-02-14T19:18:32.161Z,45.13
2023-02-14T19:21:00.796Z,43.77
2023-02-14T19:23:33.109Z,43.37
2023-02-14T19:26:15.975Z,45.93
2023-02-14T19:29:00.138Z,46.60
2023-02-14T19:31:30.924Z,48.53
2023-02-14T19:33:59.515Z,48.97
2023-02-14T19:36:28.004Z,49.23
2023-02-14T19:38:58.002Z,47.70
2023-02-14T19:41:27.257Z,50.67
2023-02-14T19:43:57.603Z,48.97
2023-02-14T19:46:26.273Z,48.13
2023-02-14T19:48:55.259Z,47.67
2023-02-14T19:51:25.757Z,48.77
2023-02-14T19:53:54.368Z,47.53
2023-02-14T19:56:24.471Z,47.17
2023-02-14T19:58:53.158Z,48.80
2023-02-14T20:01:24.143Z,48.13
2023-02-14T20:03:53.204Z,47.47
2023-02-14T20:06:22.096Z,48.17
2023-02-14T20:08:50.511Z,47.33
2023-02-14T20:11:22.730Z,47.53
2023-02-14T20:13:52.577Z,48.30
2023-02-14T20:16:21.043Z,48.30
2023-02-14T20:18:49.932Z,50.37
2023-02-14T20:21:19.037Z,49.53
2023-02-14T20:23:47.755Z,50.37
2023-02-14T20:26:16.285Z,50.13
2023-02-14T20:28:44.921Z,51.87
2023-02-14T20:31:16.000Z,51.10
2023-02-14T20:33:44.882Z,54.03
2023-02-14T20:36:13.390Z,52.27
2023-02-14T20:38:42.421Z,52.60
2023-02-14T20:41:11.516Z,52.90
2023-02-14T20:43:40.160Z,52.23
2023-02-14T20:46:09.099Z,55.30
2023-02-14T20:48:39.172Z,55.13
2023-02-14T20:51:11.709Z,53.80
2023-02-14T20:53:40.361Z,56.63
2023-02-14T20:56:08.921Z,57.00
2023-02-14T20:58:37.875Z,55.10
2023-02-14T21:01:09.430Z,56.27
2023-02-14T21:03:40.663Z,54.23
2023-02-14T21:06:11.639Z,53.70
2023-02-14T21:08:40.280Z,52.60
2023-02-14T21:11:09.354Z,52.60
2023-02-14T21:13:38.209Z,53.23
2023-02-14T21:16:06.935Z,52.20
2023-02-14T21:18:35.480Z,52.07
2023-02-14T21:21:08.503Z,50.90
2023-02-14T21:23:37.064Z,50.93
2023-02-14T21:26:05.596Z,52.37
2023-02-14T21:28:34.278Z,52.90
2023-02-14T21:31:06.131Z,52.23
2023-02-14T21:33:34.695Z,53.17
2023-02-14T21:36:08.754Z,54.23
2023-02-14T21:38:37.368Z,52.30
2023-02-14T21:41:06.348Z,55.17
2023-02-14T21:43:35.727Z,53.53
2023-02-14T21:46:05.105Z,54.53
2023-02-14T21:48:51.260Z,54.03
2023-02-14T21:51:21.161Z,54.27
2023-02-14T21:53:49.729Z,54.20
2023-02-14T21:56:19.864Z,54.67
2023-02-14T21:58:48.790Z,54.00
2023-02-14T22:01:19.561Z,54.13
2023-02-14T22:03:48.577Z,51.53
2023-02-14T22:06:17.203Z,53.10
2023-02-14T22:08:47.338Z,54.00
2023-02-14T22:11:16.319Z,51.10
2023-02-14T22:13:44.817Z,50.30
2023-02-14T22:16:13.782Z,50.50
2023-02-14T22:18:42.252Z,50.63
2023-02-14T22:21:11.518Z,51.50
2023-02-14T22:23:40.048Z,51.03
2023-02-14T22:26:13.540Z,51.90
2023-02-14T22:28:42.281Z,49.40
2023-02-14T22:31:10.893Z,50.50
2023-02-14T22:33:39.368Z,50.23
2023-02-14T22:36:08.454Z,49.40
2023-02-14T22:38:37.026Z,52.20
2023-02-14T22:41:08.622Z,49.47
2023-02-14T22:43:38.625Z,49.93
2023-02-14T22:46:07.374Z,49.80
2023-02-14T22:48:36.503Z,47.97
2023-02-14T22:51:11.633Z,50.27
2023-02-14T22:53:40.130Z,49.30
2023-02-14T22:56:15.037Z,50.47
2023-02-14T22:58:45.330Z,50.13
2023-02-14T23:01:16.950Z,49.47
2023-02-14T23:03:45.616Z,49.30
2023-02-14T23:06:14.665Z,48.97
2023-02-14T23:08:43.591Z,49.93
2023-02-14T23:11:12.392Z,49.60
2023-02-14T23:14:02.892Z,50.40
2023-02-14T23:16:48.297Z,47.83
2023-02-14T23:19:34.922Z,49.63
2023-02-14T23:22:04.129Z,50.53
2023-02-14T23:24:32.516Z,47.77
2023-02-14T23:27:00.933Z,48.60
2023-02-14T23:29:30.709Z,49.00
2023-02-14T23:32:02.340Z,49.23
2023-02-14T23:34:31.616Z,50.00
2023-02-14T23:37:00.115Z,48.73
2023-02-14T23:39:28.542Z,50.53
2023-02-14T23:41:56.971Z,51.13
2023-02-14T23:44:26.685Z,50.63
2023-02-14T23:46:57.493Z,49.67
2023-02-14T23:49:26.024Z,49.13
2023-02-14T23:51:54.930Z,50.37
2023-02-14T23:54:23.578Z,49.20
2023-02-14T23:56:52.226Z,49.70
2023-02-14T23:59:20.782Z,48.03
